OEBA/ABT METAR and TAF weather

Enter ICAO airport designator
Station Type Date Time Source
OEBA METAR 2019/11/13 02:00 UTC NOAA

OEBA 130200Z 13005KT CAVOK 15/11 Q1020 NOSIG


Station Type Date Time Source
OEBA Decoded METAR 2019/11/13 02:00 UTC NOAA

Al Baha, Saudi Arabia (OEBA) 20-18N 041-38E 1662M
Nov 12, 2019 - 09:00 PM EST / 2019.11.13 0200 UTC
Wind: from the SE (130 degrees) at 6 MPH (5 KT):0
Visibility: greater than 7 mile(s):0
Temperature: 59 F (15 C)
Dew Point: 51 F (11 C)
Relative Humidity: 76%
Pressure (altimeter): 30.12 in. Hg (1020 hPa)
ob: OEBA 130200Z 13005KT CAVOK 15/11 Q1020 NOSIG
cycle: 2

Station Type Date Time Source
OEBA TAF 2019/11/12 12:03 UTC NOAA

TAF OEBA 121100Z 1212/1318 20010KT 9999 FEW030
TEMPO 1212/1218 6000 TSRA FEW025CB SCT030
BECMG 1218/1220 11010KT

Example: see airport list